sensor_id;sensor_type;location;lat;lon;timestamp;temperature;humidity
14182;DHT22;7171;50.936;6.764;2023-04-01T00:01:38;11.90;99.90
14182;DHT22;7171;50.936;6.764;2023-04-01T00:04:04;11.90;99.90
14182;DHT22;7171;50.936;6.764;2023-04-01T00:06:31;11.90;99.90
14182;DHT22;7171;50.936;6.764;2023-04-01T00:08:58;11.90;99.90
14182;DHT22;7171;50.936;6.764;2023-04-01T00:11:25;12.00;99.90
14182;DHT22;7171;50.936;6.764;2023-04-01T00:13:53;11.90;99.90
14182;DHT22;7171;50.936;6.764;2023-04-01T00:16:21;11.90;99.90
14182;DHT22;7171;50.936;6.764;2023-04-01T00:18:48;11.90;99.90
14182;DHT22;7171;50.936;6.764;2023-04-01T00:21:15;11.90;99.90
14182;DHT22;7171;50.936;6.764;2023-04-01T00:23:42;11.90;99.90
14182;DHT22;7171;50.936;6.764;2023-04-01T00:26:09;12.00;99.90
14182;DHT22;7171;50.936;6.764;2023-04-01T00:28:37;11.90;99.90
14182;DHT22;7171;50.936;6.764;2023-04-01T00:31:05;12.00;99.90
14182;DHT22;7171;50.936;6.764;2023-04-01T00:33:33;12.00;99.90
14182;DHT22;7171;50.936;6.764;2023-04-01T00:36:07;12.00;99.90
14182;DHT22;7171;50.936;6.764;2023-04-01T00:38:35;12.00;99.90
14182;DHT22;7171;50.936;6.764;2023-04-01T00:41:02;12.00;99.90
14182;DHT22;7171;50.936;6.764;2023-04-01T00:43:28;12.00;99.90
14182;DHT22;7171;50.936;6.764;2023-04-01T00:45:55;11.90;99.90
14182;DHT22;7171;50.936;6.764;2023-04-01T00:48:24;12.00;99.90
14182;DHT22;7171;50.936;6.764;2023-04-01T00:50:56;11.90;99.90
14182;DHT22;7171;50.936;6.764;2023-04-01T00:53:24;11.90;99.90
14182;DHT22;7171;50.936;6.764;2023-04-01T00:55:55;11.90;99.90
14182;DHT22;7171;50.936;6.764;2023-04-01T00:58:27;12.00;99.90
14182;DHT22;7171;50.936;6.764;2023-04-01T01:00:56;12.00;99.90
14182;DHT22;7171;50.936;6.764;2023-04-01T01:03:23;12.00;99.90
14182;DHT22;7171;50.936;6.764;2023-04-01T01:06:06;12.00;99.90
14182;DHT22;7171;50.936;6.764;2023-04-01T01:08:44;12.00;99.90
14182;DHT22;7171;50.936;6.764;2023-04-01T01:11:15;12.00;99.90
14182;DHT22;7171;50.936;6.764;2023-04-01T01:13:50;11.90;99.90
14182;DHT22;7171;50.936;6.764;2023-04-01T01:16:25;11.90;99.90
14182;DHT22;7171;50.936;6.764;2023-04-01T01:18:58;11.90;99.90
14182;DHT22;7171;50.936;6.764;2023-04-01T01:21:38;12.00;99.90
14182;DHT22;7171;50.936;6.764;2023-04-01T01:26:49;12.00;99.90
14182;DHT22;7171;50.936;6.764;2023-04-01T01:29:42;11.90;99.90
14182;DHT22;7171;50.936;6.764;2023-04-01T01:32:25;11.90;99.90
14182;DHT22;7171;50.936;6.764;2023-04-01T01:35:06;11.90;99.90
14182;DHT22;7171;50.936;6.764;2023-04-01T01:37:34;11.90;99.90
14182;DHT22;7171;50.936;6.764;2023-04-01T01:40:04;11.90;99.90
14182;DHT22;7171;50.936;6.764;2023-04-01T01:42:34;11.80;99.90
14182;DHT22;7171;50.936;6.764;2023-04-01T01:45:04;11.90;99.90
14182;DHT22;7171;50.936;6.764;2023-04-01T01:47:33;11.80;99.90
14182;DHT22;7171;50.936;6.764;2023-04-01T01:50:01;11.90;99.90
14182;DHT22;7171;50.936;6.764;2023-04-01T01:52:30;11.80;99.90
14182;DHT22;7171;50.936;6.764;2023-04-01T01:54:57;11.70;99.90
14182;DHT22;7171;50.936;6.764;2023-04-01T01:57:26;11.70;99.90
14182;DHT22;7171;50.936;6.764;2023-04-01T01:59:56;11.70;99.90
14182;DHT22;7171;50.936;6.764;2023-04-01T02:02:25;11.60;99.90
14182;DHT22;7171;50.936;6.764;2023-04-01T02:04:53;11.60;99.90
14182;DHT22;7171;50.936;6.764;2023-04-01T02:07:23;11.50;99.90
14182;DHT22;7171;50.936;6.764;2023-04-01T02:09:53;11.50;99.90
14182;DHT22;7171;50.936;6.764;2023-04-01T02:12:21;11.50;99.90
14182;DHT22;7171;50.936;6.764;2023-04-01T02:14:52;11.40;99.90
14182;DHT22;7171;50.936;6.764;2023-04-01T02:17:22;11.40;99.90
14182;DHT22;7171;50.936;6.764;2023-04-01T02:19:52;11.30;99.90
14182;DHT22;7171;50.936;6.764;2023-04-01T02:22:22;11.20;99.90
14182;DHT22;7171;50.936;6.764;2023-04-01T02:24:52;11.20;99.90
14182;DHT22;7171;50.936;6.764;2023-04-01T02:27:21;11.10;99.90
14182;DHT22;7171;50.936;6.764;2023-04-01T02:29:48;11.00;99.90
14182;DHT22;7171;50.936;6.764;2023-04-01T02:32:16;11.00;99.90
14182;DHT22;7171;50.936;6.764;2023-04-01T02:34:44;11.00;99.90
14182;DHT22;7171;50.936;6.764;2023-04-01T02:37:11;10.90;99.90
14182;DHT22;7171;50.936;6.764;2023-04-01T02:39:39;10.90;99.90
14182;DHT22;7171;50.936;6.764;2023-04-01T02:44:34;10.90;99.90
14182;DHT22;7171;50.936;6.764;2023-04-01T02:47:01;10.80;99.90
14182;DHT22;7171;50.936;6.764;2023-04-01T02:51:55;10.80;99.90
14182;DHT22;7171;50.936;6.764;2023-04-01T02:56:48;10.90;99.90
14182;DHT22;7171;50.936;6.764;2023-04-01T03:01:44;10.90;99.90
14182;DHT22;7171;50.936;6.764;2023-04-01T03:06:37;10.90;99.90
14182;DHT22;7171;50.936;6.764;2023-04-01T03:11:31;10.90;99.90
14182;DHT22;7171;50.936;6.764;2023-04-01T03:16:25;10.90;99.90
14182;DHT22;7171;50.936;6.764;2023-04-01T03:18:53;10.90;99.90
14182;DHT22;7171;50.936;6.764;2023-04-01T03:21:24;10.90;99.90
14182;DHT22;7171;50.936;6.764;2023-04-01T03:26:18;10.90;99.90
14182;DHT22;7171;50.936;6.764;2023-04-01T03:31:13;10.90;99.90
14182;DHT22;7171;50.936;6.764;2023-04-01T03:36:10;10.90;99.90
14182;DHT22;7171;50.936;6.764;2023-04-01T03:41:05;10.90;99.90
14182;DHT22;7171;50.936;6.764;2023-04-01T03:43:32;10.90;99.90
14182;DHT22;7171;50.936;6.764;2023-04-01T03:48:26;10.90;99.90
14182;DHT22;7171;50.936;6.764;2023-04-01T03:50:53;10.90;99.90
14182;DHT22;7171;50.936;6.764;2023-04-01T03:53:21;11.00;99.90
14182;DHT22;7171;50.936;6.764;2023-04-01T03:55:47;11.00;99.90
14182;DHT22;7171;50.936;6.764;2023-04-01T04:00:43;11.00;99.90
14182;DHT22;7171;50.936;6.764;2023-04-01T04:05:37;11.00;99.90
14182;DHT22;7171;50.936;6.764;2023-04-01T04:10:32;11.10;99.90
14182;DHT22;7171;50.936;6.764;2023-04-01T04:15:27;11.10;99.90
14182;DHT22;7171;50.936;6.764;2023-04-01T04:20:21;11.10;99.90
14182;DHT22;7171;50.936;6.764;2023-04-01T04:25:15;11.10;99.90
14182;DHT22;7171;50.936;6.764;2023-04-01T04:27:43;11.10;99.90
14182;DHT22;7171;50.936;6.764;2023-04-01T04:30:10;11.00;99.90
14182;DHT22;7171;50.936;6.764;2023-04-01T04:35:06;10.90;99.90
14182;DHT22;7171;50.936;6.764;2023-04-01T04:40:00;10.80;99.90
14182;DHT22;7171;50.936;6.764;2023-04-01T04:44:55;10.80;99.90
14182;DHT22;7171;50.936;6.764;2023-04-01T04:47:22;10.70;99.90
14182;DHT22;7171;50.936;6.764;2023-04-01T04:52:16;10.60;99.90
14182;DHT22;7171;50.936;6.764;2023-04-01T04:57:10;10.50;99.90
14182;DHT22;7171;50.936;6.764;2023-04-01T05:02:05;10.50;99.90
14182;DHT22;7171;50.936;6.764;2023-04-01T05:04:34;10.50;99.90
14182;DHT22;7171;50.936;6.764;2023-04-01T05:07:01;10.40;99.90
14182;DHT22;7171;50.936;6.764;2023-04-01T05:11:57;10.40;99.90
14182;DHT22;7171;50.936;6.764;2023-04-01T05:16:50;10.40;99.90
14182;DHT22;7171;50.936;6.764;2023-04-01T05:19:19;10.40;99.90
14182;DHT22;7171;50.936;6.764;2023-04-01T05:21:46;10.40;99.90
14182;DHT22;7171;50.936;6.764;2023-04-01T05:26:40;10.30;99.90
14182;DHT22;7171;50.936;6.764;2023-04-01T05:31:33;10.40;99.90
14182;DHT22;7171;50.936;6.764;2023-04-01T05:34:00;10.40;99.90
14182;DHT22;7171;50.936;6.764;2023-04-01T05:36:28;10.30;99.90
14182;DHT22;7171;50.936;6.764;2023-04-01T05:38:55;10.40;99.90
14182;DHT22;7171;50.936;6.764;2023-04-01T05:41:22;10.40;99.90
14182;DHT22;7171;50.936;6.764;2023-04-01T05:46:16;10.40;99.90
14182;DHT22;7171;50.936;6.764;2023-04-01T05:51:12;10.30;99.90
14182;DHT22;7171;50.936;6.764;2023-04-01T05:53:41;10.30;99.90
14182;DHT22;7171;50.936;6.764;2023-04-01T05:56:08;10.30;99.90
14182;DHT22;7171;50.936;6.764;2023-04-01T06:01:03;10.20;99.90
14182;DHT22;7171;50.936;6.764;2023-04-01T06:03:30;10.30;99.90
14182;DHT22;7171;50.936;6.764;2023-04-01T06:05:57;10.30;99.90
14182;DHT22;7171;50.936;6.764;2023-04-01T06:11:12;10.30;99.90
14182;DHT22;7171;50.936;6.764;2023-04-01T06:14:06;10.30;99.90
14182;DHT22;7171;50.936;6.764;2023-04-01T06:16:43;10.30;99.90
14182;DHT22;7171;50.936;6.764;2023-04-01T06:19:27;10.30;99.90
14182;DHT22;7171;50.936;6.764;2023-04-01T06:25:17;10.30;99.90
14182;DHT22;7171;50.936;6.764;2023-04-01T06:28:03;10.30;99.90
14182;DHT22;7171;50.936;6.764;2023-04-01T06:30:40;10.30;99.90
14182;DHT22;7171;50.936;6.764;2023-04-01T06:33:29;10.30;99.90
14182;DHT22;7171;50.936;6.764;2023-04-01T06:36:13;10.30;99.90
14182;DHT22;7171;50.936;6.764;2023-04-01T06:38:54;10.30;99.90
14182;DHT22;7171;50.936;6.764;2023-04-01T06:42:04;10.30;99.90
14182;DHT22;7171;50.936;6.764;2023-04-01T06:44:43;10.30;99.90
14182;DHT22;7171;50.936;6.764;2023-04-01T06:47:25;10.20;99.90
14182;DHT22;7171;50.936;6.764;2023-04-01T06:50:02;10.30;99.90
14182;DHT22;7171;50.936;6.764;2023-04-01T06:52:42;10.30;99.90
14182;DHT22;7171;50.936;6.764;2023-04-01T06:55:27;10.30;99.90
14182;DHT22;7171;50.936;6.764;2023-04-01T06:57:56;10.30;99.90
14182;DHT22;7171;50.936;6.764;2023-04-01T07:00:29;10.30;99.90
14182;DHT22;7171;50.936;6.764;2023-04-01T07:03:05;10.30;99.90
14182;DHT22;7171;50.936;6.764;2023-04-01T07:05:34;10.30;99.90
14182;DHT22;7171;50.936;6.764;2023-04-01T07:08:03;10.30;99.90
14182;DHT22;7171;50.936;6.764;2023-04-01T07:10:35;10.30;99.90
14182;DHT22;7171;50.936;6.764;2023-04-01T07:13:14;10.30;99.90
14182;DHT22;7171;50.936;6.764;2023-04-01T07:15:46;10.30;99.90
14182;DHT22;7171;50.936;6.764;2023-04-01T07:18:18;10.30;99.90
14182;DHT22;7171;50.936;6.764;2023-04-01T07:20:49;10.30;99.90
14182;DHT22;7171;50.936;6.764;2023-04-01T07:23:21;10.30;99.90
14182;DHT22;7171;50.936;6.764;2023-04-01T07:25:52;10.20;99.90
14182;DHT22;7171;50.936;6.764;2023-04-01T07:28:20;10.20;99.90
14182;DHT22;7171;50.936;6.764;2023-04-01T07:30:57;10.20;99.90
14182;DHT22;7171;50.936;6.764;2023-04-01T07:33:32;10.20;99.90
14182;DHT22;7171;50.936;6.764;2023-04-01T07:36:05;10.20;99.90
14182;DHT22;7171;50.936;6.764;2023-04-01T07:38:40;10.20;99.90
14182;DHT22;7171;50.936;6.764;2023-04-01T07:41:15;10.20;99.90
14182;DHT22;7171;50.936;6.764;2023-04-01T07:43:56;10.20;99.90
14182;DHT22;7171;50.936;6.764;2023-04-01T07:46:52;10.30;99.90
14182;DHT22;7171;50.936;6.764;2023-04-01T07:49:24;10.20;99.90
14182;DHT22;7171;50.936;6.764;2023-04-01T07:51:59;10.20;99.90
14182;DHT22;7171;50.936;6.764;2023-04-01T07:54:33;10.20;99.90
14182;DHT22;7171;50.936;6.764;2023-04-01T07:57:05;10.20;99.90
14182;DHT22;7171;50.936;6.764;2023-04-01T07:59:39;10.20;99.90
14182;DHT22;7171;50.936;6.764;2023-04-01T08:02:19;10.20;99.90
14182;DHT22;7171;50.936;6.764;2023-04-01T08:04:55;10.20;99.90
14182;DHT22;7171;50.936;6.764;2023-04-01T08:07:30;10.20;99.90
14182;DHT22;7171;50.936;6.764;2023-04-01T08:10:07;10.20;99.90
14182;DHT22;7171;50.936;6.764;2023-04-01T08:12:45;10.20;99.90
14182;DHT22;7171;50.936;6.764;2023-04-01T08:15:19;10.20;99.90
14182;DHT22;7171;50.936;6.764;2023-04-01T08:17:58;10.20;99.90
14182;DHT22;7171;50.936;6.764;2023-04-01T08:20:32;10.20;99.90
14182;DHT22;7171;50.936;6.764;2023-04-01T08:23:06;10.20;99.90
14182;DHT22;7171;50.936;6.764;2023-04-01T08:28:09;10.20;99.90
14182;DHT22;7171;50.936;6.764;2023-04-01T08:30:42;10.20;99.90
14182;DHT22;7171;50.936;6.764;2023-04-01T08:33:15;10.20;99.90
14182;DHT22;7171;50.936;6.764;2023-04-01T08:35:47;10.20;99.90
14182;DHT22;7171;50.936;6.764;2023-04-01T08:38:21;10.20;99.90
14182;DHT22;7171;50.936;6.764;2023-04-01T08:41:01;10.20;99.90
14182;DHT22;7171;50.936;6.764;2023-04-01T08:47:04;10.20;99.90
14182;DHT22;7171;50.936;6.764;2023-04-01T08:49:54;10.30;99.90
14182;DHT22;7171;50.936;6.764;2023-04-01T08:52:35;10.30;99.90
14182;DHT22;7171;50.936;6.764;2023-04-01T08:55:19;10.30;99.90
14182;DHT22;7171;50.936;6.764;2023-04-01T08:58:04;10.20;99.90
14182;DHT22;7171;50.936;6.764;2023-04-01T09:00:36;10.30;99.90
14182;DHT22;7171;50.936;6.764;2023-04-01T09:03:42;10.30;99.90
14182;DHT22;7171;50.936;6.764;2023-04-01T09:06:44;10.30;99.90
14182;DHT22;7171;50.936;6.764;2023-04-01T09:09:43;10.30;99.90
14182;DHT22;7171;50.936;6.764;2023-04-01T09:12:26;10.30;99.90
14182;DHT22;7171;50.936;6.764;2023-04-01T09:15:07;10.30;99.90
14182;DHT22;7171;50.936;6.764;2023-04-01T09:18:09;10.30;99.90
14182;DHT22;7171;50.936;6.764;2023-04-01T09:20:45;10.30;99.90
14182;DHT22;7171;50.936;6.764;2023-04-01T09:23:33;10.40;99.90
14182;DHT22;7171;50.936;6.764;2023-04-01T09:26:32;10.40;99.90
14182;DHT22;7171;50.936;6.764;2023-04-01T09:29:17;10.40;99.90
14182;DHT22;7171;50.936;6.764;2023-04-01T09:32:01;10.40;99.90
14182;DHT22;7171;50.936;6.764;2023-04-01T09:34:44;10.40;99.90
14182;DHT22;7171;50.936;6.764;2023-04-01T09:37:20;10.40;99.90
14182;DHT22;7171;50.936;6.764;2023-04-01T09:40:02;10.40;99.90
14182;DHT22;7171;50.936;6.764;2023-04-01T09:42:51;10.40;99.90
14182;DHT22;7171;50.936;6.764;2023-04-01T09:45:34;10.40;99.90
14182;DHT22;7171;50.936;6.764;2023-04-01T09:48:20;10.50;99.90
14182;DHT22;7171;50.936;6.764;2023-04-01T09:51:00;10.40;99.90
14182;DHT22;7171;50.936;6.764;2023-04-01T09:53:41;10.40;99.90
14182;DHT22;7171;50.936;6.764;2023-04-01T10:02:57;10.40;99.90
14182;DHT22;7171;50.936;6.764;2023-04-01T10:06:00;10.30;99.90
14182;DHT22;7171;50.936;6.764;2023-04-01T10:11:56;10.40;99.90
14182;DHT22;7171;50.936;6.764;2023-04-01T10:20:37;10.50;99.90
14182;DHT22;7171;50.936;6.764;2023-04-01T10:23:39;10.50;99.90
14182;DHT22;7171;50.936;6.764;2023-04-01T10:26:46;10.50;99.90
14182;DHT22;7171;50.936;6.764;2023-04-01T10:29:38;10.50;99.90
14182;DHT22;7171;50.936;6.764;2023-04-01T10:32:28;10.50;99.90
14182;DHT22;7171;50.936;6.764;2023-04-01T10:41:17;10.60;99.90
14182;DHT22;7171;50.936;6.764;2023-04-01T10:44:22;10.60;99.90
14182;DHT22;7171;50.936;6.764;2023-04-01T10:59:32;10.80;99.90
14182;DHT22;7171;50.936;6.764;2023-04-01T11:02:42;10.80;99.90
14182;DHT22;7171;50.936;6.764;2023-04-01T11:05:53;10.80;99.90
14182;DHT22;7171;50.936;6.764;2023-04-01T11:09:05;10.80;99.90
14182;DHT22;7171;50.936;6.764;2023-04-01T11:11:59;10.80;99.90
14182;DHT22;7171;50.936;6.764;2023-04-01T11:14:51;10.80;99.90
14182;DHT22;7171;50.936;6.764;2023-04-01T11:23:46;10.70;99.90
14182;DHT22;7171;50.936;6.764;2023-04-01T11:26:32;10.70;99.90
14182;DHT22;7171;50.936;6.764;2023-04-01T11:29:15;10.80;99.90
14182;DHT22;7171;50.936;6.764;2023-04-01T11:31:55;10.90;99.90
14182;DHT22;7171;50.936;6.764;2023-04-01T11:34:43;10.90;99.90
14182;DHT22;7171;50.936;6.764;2023-04-01T11:37:22;11.00;99.90
14182;DHT22;7171;50.936;6.764;2023-04-01T11:39:59;10.90;99.90
14182;DHT22;7171;50.936;6.764;2023-04-01T11:42:40;11.00;99.90
14182;DHT22;7171;50.936;6.764;2023-04-01T11:45:18;11.00;99.90
14182;DHT22;7171;50.936;6.764;2023-04-01T11:48:20;11.10;99.90
14182;DHT22;7171;50.936;6.764;2023-04-01T11:51:11;11.10;99.90
14182;DHT22;7171;50.936;6.764;2023-04-01T11:53:47;11.10;99.90
14182;DHT22;7171;50.936;6.764;2023-04-01T11:56:32;11.10;99.90
14182;DHT22;7171;50.936;6.764;2023-04-01T12:02:24;11.10;99.90
14182;DHT22;7171;50.936;6.764;2023-04-01T12:05:10;11.10;99.90
14182;DHT22;7171;50.936;6.764;2023-04-01T12:07:52;11.10;99.90
14182;DHT22;7171;50.936;6.764;2023-04-01T12:10:21;11.10;99.90
14182;DHT22;7171;50.936;6.764;2023-04-01T12:12:57;11.10;99.90
14182;DHT22;7171;50.936;6.764;2023-04-01T12:15:36;11.20;99.90
14182;DHT22;7171;50.936;6.764;2023-04-01T12:18:15;11.30;99.90
14182;DHT22;7171;50.936;6.764;2023-04-01T12:20:49;11.30;99.90
14182;DHT22;7171;50.936;6.764;2023-04-01T12:23:39;11.40;99.90
14182;DHT22;7171;50.936;6.764;2023-04-01T12:26:23;11.40;99.90
14182;DHT22;7171;50.936;6.764;2023-04-01T12:29:04;11.50;99.90
14182;DHT22;7171;50.936;6.764;2023-04-01T12:31:41;11.50;99.90
14182;DHT22;7171;50.936;6.764;2023-04-01T12:37:13;11.60;99.90
14182;DHT22;7171;50.936;6.764;2023-04-01T12:39:59;11.60;99.90
14182;DHT22;7171;50.936;6.764;2023-04-01T12:42:41;11.70;99.90
14182;DHT22;7171;50.936;6.764;2023-04-01T12:45:27;11.70;99.90
14182;DHT22;7171;50.936;6.764;2023-04-01T12:48:36;11.60;99.90
14182;DHT22;7171;50.936;6.764;2023-04-01T12:51:29;11.60;99.90
14182;DHT22;7171;50.936;6.764;2023-04-01T12:57:21;11.60;99.90
14182;DHT22;7171;50.936;6.764;2023-04-01T13:00:10;11.60;99.90
14182;DHT22;7171;50.936;6.764;2023-04-01T13:02:51;11.60;99.90
14182;DHT22;7171;50.936;6.764;2023-04-01T13:08:41;11.60;99.90
14182;DHT22;7171;50.936;6.764;2023-04-01T13:11:16;11.70;99.90
14182;DHT22;7171;50.936;6.764;2023-04-01T13:14:09;11.70;99.90
14182;DHT22;7171;50.936;6.764;2023-04-01T13:16:39;11.70;99.90
14182;DHT22;7171;50.936;6.764;2023-04-01T13:19:11;11.70;99.90
14182;DHT22;7171;50.936;6.764;2023-04-01T13:21:49;11.70;99.90
14182;DHT22;7171;50.936;6.764;2023-04-01T13:24:28;11.80;99.90
14182;DHT22;7171;50.936;6.764;2023-04-01T13:27:03;11.80;99.90
14182;DHT22;7171;50.936;6.764;2023-04-01T13:29:35;11.70;99.90
14182;DHT22;7171;50.936;6.764;2023-04-01T13:32:16;11.70;99.90
14182;DHT22;7171;50.936;6.764;2023-04-01T13:34:52;11.70;99.90
14182;DHT22;7171;50.936;6.764;2023-04-01T13:37:29;11.70;99.90
14182;DHT22;7171;50.936;6.764;2023-04-01T13:40:12;11.70;99.90
14182;DHT22;7171;50.936;6.764;2023-04-01T13:42:47;11.70;99.90
14182;DHT22;7171;50.936;6.764;2023-04-01T13:45:19;11.70;99.90
14182;DHT22;7171;50.936;6.764;2023-04-01T13:51:09;11.70;99.90
14182;DHT22;7171;50.936;6.764;2023-04-01T13:56:48;11.80;99.90
14182;DHT22;7171;50.936;6.764;2023-04-01T13:59:42;11.80;99.90
14182;DHT22;7171;50.936;6.764;2023-04-01T14:02:29;11.90;99.90
14182;DHT22;7171;50.936;6.764;2023-04-01T14:05:24;11.80;99.90
14182;DHT22;7171;50.936;6.764;2023-04-01T14:08:00;11.90;99.90
14182;DHT22;7171;50.936;6.764;2023-04-01T14:10:39;11.90;99.90
14182;DHT22;7171;50.936;6.764;2023-04-01T14:13:12;11.90;99.90
14182;DHT22;7171;50.936;6.764;2023-04-01T14:16:00;11.80;99.90
14182;DHT22;7171;50.936;6.764;2023-04-01T14:18:45;11.90;99.90
14182;DHT22;7171;50.936;6.764;2023-04-01T14:21:31;11.80;99.90
14182;DHT22;7171;50.936;6.764;2023-04-01T14:24:23;11.90;99.90
14182;DHT22;7171;50.936;6.764;2023-04-01T14:29:58;11.80;99.90
14182;DHT22;7171;50.936;6.764;2023-04-01T14:32:34;11.70;99.90
14182;DHT22;7171;50.936;6.764;2023-04-01T14:35:19;11.70;99.90
14182;DHT22;7171;50.936;6.764;2023-04-01T14:38:02;11.70;99.90
14182;DHT22;7171;50.936;6.764;2023-04-01T14:40:45;11.70;99.90
14182;DHT22;7171;50.936;6.764;2023-04-01T14:43:47;11.60;99.90
14182;DHT22;7171;50.936;6.764;2023-04-01T14:46:27;11.60;99.90
14182;DHT22;7171;50.936;6.764;2023-04-01T14:48:59;11.60;99.90
14182;DHT22;7171;50.936;6.764;2023-04-01T14:51:31;11.70;99.90
14182;DHT22;7171;50.936;6.764;2023-04-01T14:54:08;11.70;99.90
14182;DHT22;7171;50.936;6.764;2023-04-01T14:56:37;11.70;99.90
14182;DHT22;7171;50.936;6.764;2023-04-01T14:59:09;11.70;99.90
14182;DHT22;7171;50.936;6.764;2023-04-01T15:01:43;11.70;99.90
14182;DHT22;7171;50.936;6.764;2023-04-01T15:04:43;11.80;99.90
14182;DHT22;7171;50.936;6.764;2023-04-01T15:07:27;11.80;99.90
14182;DHT22;7171;50.936;6.764;2023-04-01T15:10:09;11.70;99.90
14182;DHT22;7171;50.936;6.764;2023-04-01T15:12:50;11.70;99.90
14182;DHT22;7171;50.936;6.764;2023-04-01T15:15:32;11.70;99.90
14182;DHT22;7171;50.936;6.764;2023-04-01T15:18:08;11.70;99.90
14182;DHT22;7171;50.936;6.764;2023-04-01T15:20:59;11.70;99.90
14182;DHT22;7171;50.936;6.764;2023-04-01T15:23:37;11.60;99.90
14182;DHT22;7171;50.936;6.764;2023-04-01T15:26:21;11.60;99.90
14182;DHT22;7171;50.936;6.764;2023-04-01T15:29:27;11.60;99.90
14182;DHT22;7171;50.936;6.764;2023-04-01T15:32:01;11.50;99.90
14182;DHT22;7171;50.936;6.764;2023-04-01T15:34:35;11.60;99.90
14182;DHT22;7171;50.936;6.764;2023-04-01T15:37:11;11.50;99.90
14182;DHT22;7171;50.936;6.764;2023-04-01T15:39:51;11.70;99.90
14182;DHT22;7171;50.936;6.764;2023-04-01T15:42:31;11.60;99.90
14182;DHT22;7171;50.936;6.764;2023-04-01T15:45:12;11.60;99.90
14182;DHT22;7171;50.936;6.764;2023-04-01T15:47:44;11.60;99.90
14182;DHT22;7171;50.936;6.764;2023-04-01T15:50:47;11.60;99.90
14182;DHT22;7171;50.936;6.764;2023-04-01T15:56:14;11.60;99.90
14182;DHT22;7171;50.936;6.764;2023-04-01T15:58:53;11.70;99.90
14182;DHT22;7171;50.936;6.764;2023-04-01T16:01:33;11.70;99.90
14182;DHT22;7171;50.936;6.764;2023-04-01T16:04:17;11.70;99.90
14182;DHT22;7171;50.936;6.764;2023-04-01T16:07:02;11.70;99.90
14182;DHT22;7171;50.936;6.764;2023-04-01T16:09:52;11.70;99.90
14182;DHT22;7171;50.936;6.764;2023-04-01T16:12:32;11.70;99.90
14182;DHT22;7171;50.936;6.764;2023-04-01T16:15:11;11.70;99.90
14182;DHT22;7171;50.936;6.764;2023-04-01T16:17:55;11.60;99.90
14182;DHT22;7171;50.936;6.764;2023-04-01T16:20:34;11.60;99.90
14182;DHT22;7171;50.936;6.764;2023-04-01T16:23:13;11.50;99.90
14182;DHT22;7171;50.936;6.764;2023-04-01T16:25:51;11.40;99.90
14182;DHT22;7171;50.936;6.764;2023-04-01T16:28:24;11.40;99.90
14182;DHT22;7171;50.936;6.764;2023-04-01T16:30:58;11.40;99.90
14182;DHT22;7171;50.936;6.764;2023-04-01T16:33:35;11.40;99.90
14182;DHT22;7171;50.936;6.764;2023-04-01T16:36:10;11.30;99.90
14182;DHT22;7171;50.936;6.764;2023-04-01T16:38:42;11.30;99.90
14182;DHT22;7171;50.936;6.764;2023-04-01T16:41:16;11.30;99.90
14182;DHT22;7171;50.936;6.764;2023-04-01T16:43:46;11.20;99.90
14182;DHT22;7171;50.936;6.764;2023-04-01T16:46:31;11.40;99.90
14182;DHT22;7171;50.936;6.764;2023-04-01T16:49:04;11.40;99.90
14182;DHT22;7171;50.936;6.764;2023-04-01T16:51:44;11.40;99.90
14182;DHT22;7171;50.936;6.764;2023-04-01T16:54:17;11.30;99.90
14182;DHT22;7171;50.936;6.764;2023-04-01T16:56:50;11.30;99.90
14182;DHT22;7171;50.936;6.764;2023-04-01T16:59:22;11.30;99.90
14182;DHT22;7171;50.936;6.764;2023-04-01T17:01:53;11.30;99.90
14182;DHT22;7171;50.936;6.764;2023-04-01T17:04:27;11.40;99.90
14182;DHT22;7171;50.936;6.764;2023-04-01T17:07:05;11.30;99.90
14182;DHT22;7171;50.936;6.764;2023-04-01T17:09:45;11.30;99.90
14182;DHT22;7171;50.936;6.764;2023-04-01T17:12:24;11.30;99.90
14182;DHT22;7171;50.936;6.764;2023-04-01T17:15:00;11.40;99.90
14182;DHT22;7171;50.936;6.764;2023-04-01T17:17:34;11.30;99.90
14182;DHT22;7171;50.936;6.764;2023-04-01T17:20:14;11.30;99.90
14182;DHT22;7171;50.936;6.764;2023-04-01T17:22:50;11.20;99.90
14182;DHT22;7171;50.936;6.764;2023-04-01T17:25:32;11.20;99.90
14182;DHT22;7171;50.936;6.764;2023-04-01T17:28:10;11.20;99.90
14182;DHT22;7171;50.936;6.764;2023-04-01T17:30:44;11.20;99.90
14182;DHT22;7171;50.936;6.764;2023-04-01T17:36:16;11.10;99.90
14182;DHT22;7171;50.936;6.764;2023-04-01T17:39:03;11.20;99.90
14182;DHT22;7171;50.936;6.764;2023-04-01T17:41:42;11.20;99.90
14182;DHT22;7171;50.936;6.764;2023-04-01T17:44:19;11.20;99.90
14182;DHT22;7171;50.936;6.764;2023-04-01T17:47:13;11.30;99.90
14182;DHT22;7171;50.936;6.764;2023-04-01T17:49:51;11.20;99.90
14182;DHT22;7171;50.936;6.764;2023-04-01T17:52:25;11.20;99.90
14182;DHT22;7171;50.936;6.764;2023-04-01T17:55:15;11.10;99.90
14182;DHT22;7171;50.936;6.764;2023-04-01T17:57:48;11.20;99.90
14182;DHT22;7171;50.936;6.764;2023-04-01T18:00:24;11.00;99.90
14182;DHT22;7171;50.936;6.764;2023-04-01T18:03:00;10.90;99.90
14182;DHT22;7171;50.936;6.764;2023-04-01T18:08:31;10.80;99.90
14182;DHT22;7171;50.936;6.764;2023-04-01T18:11:09;10.70;99.90
14182;DHT22;7171;50.936;6.764;2023-04-01T18:14:07;10.70;99.90
14182;DHT22;7171;50.936;6.764;2023-04-01T18:17:03;10.60;99.90
14182;DHT22;7171;50.936;6.764;2023-04-01T18:19:39;10.60;99.90
14182;DHT22;7171;50.936;6.764;2023-04-01T18:22:17;10.50;99.90
14182;DHT22;7171;50.936;6.764;2023-04-01T18:24:49;10.40;99.90
14182;DHT22;7171;50.936;6.764;2023-04-01T18:27:24;10.50;99.90
14182;DHT22;7171;50.936;6.764;2023-04-01T18:30:00;10.50;99.90
14182;DHT22;7171;50.936;6.764;2023-04-01T18:32:34;10.50;99.90
14182;DHT22;7171;50.936;6.764;2023-04-01T18:35:14;10.50;99.90
14182;DHT22;7171;50.936;6.764;2023-04-01T18:37:46;10.50;99.90
14182;DHT22;7171;50.936;6.764;2023-04-01T18:40:21;10.50;99.90
14182;DHT22;7171;50.936;6.764;2023-04-01T18:42:59;10.50;99.90
14182;DHT22;7171;50.936;6.764;2023-04-01T18:45:31;10.50;99.90
14182;DHT22;7171;50.936;6.764;2023-04-01T18:48:11;10.50;99.90
14182;DHT22;7171;50.936;6.764;2023-04-01T18:50:43;10.50;99.90
14182;DHT22;7171;50.936;6.764;2023-04-01T18:53:20;10.50;99.90
14182;DHT22;7171;50.936;6.764;2023-04-01T18:55:52;10.50;99.90
14182;DHT22;7171;50.936;6.764;2023-04-01T18:58:26;11.00;99.90
14182;DHT22;7171;50.936;6.764;2023-04-01T19:01:14;11.20;99.90
14182;DHT22;7171;50.936;6.764;2023-04-01T19:03:52;11.50;99.90
14182;DHT22;7171;50.936;6.764;2023-04-01T19:06:27;11.80;99.90
14182;DHT22;7171;50.936;6.764;2023-04-01T19:09:09;11.60;99.90
14182;DHT22;7171;50.936;6.764;2023-04-01T19:11:43;11.30;99.90
14182;DHT22;7171;50.936;6.764;2023-04-01T19:14:19;11.10;99.90
14182;DHT22;7171;50.936;6.764;2023-04-01T19:16:51;10.90;99.90
14182;DHT22;7171;50.936;6.764;2023-04-01T19:19:29;10.90;99.90
14182;DHT22;7171;50.936;6.764;2023-04-01T19:22:10;10.90;99.90
14182;DHT22;7171;50.936;6.764;2023-04-01T19:25:09;10.80;99.90
14182;DHT22;7171;50.936;6.764;2023-04-01T19:27:42;10.80;99.90
14182;DHT22;7171;50.936;6.764;2023-04-01T19:30:23;10.70;99.90